createdAt,value
2023-04-22T00:00:41.032Z,94690.22
2023-04-22T00:03:10.523Z,94692.41
2023-04-22T00:05:38.704Z,94687.09
2023-04-22T00:08:06.718Z,94682.16
2023-04-22T00:10:34.682Z,94674.44
2023-04-22T00:13:02.571Z,94681.56
2023-04-22T00:15:30.525Z,94674.13
2023-04-22T00:18:00.277Z,94673.75
2023-04-22T00:20:32.426Z,94680.28
2023-04-22T00:23:00.339Z,94685.41
2023-04-22T00:25:28.237Z,94676.16
2023-04-22T00:27:56.103Z,94677.59
2023-04-22T00:30:23.985Z,94665.00
2023-04-22T00:32:51.848Z,94670.09
2023-04-22T00:35:19.621Z,94663.59
2023-04-22T00:37:48.816Z,94667.94
2023-04-22T00:40:19.640Z,94667.56
2023-04-22T00:42:48.810Z,94672.88
2023-04-22T00:45:18.284Z,94666.97
2023-04-22T00:47:46.418Z,94674.00
2023-04-22T00:50:14.883Z,94673.16
2023-04-22T00:52:42.807Z,94674.69
2023-04-22T00:55:12.777Z,94675.59
2023-04-22T00:57:41.532Z,94672.91
2023-04-22T01:00:10.819Z,94670.34
2023-04-22T01:02:41.116Z,94672.50
2023-04-22T01:05:10.769Z,94674.09
2023-04-22T01:07:38.776Z,94673.31
2023-04-22T01:10:07.716Z,94667.59
2023-04-22T01:12:37.068Z,94671.72
2023-04-22T01:15:05.957Z,94667.19
2023-04-22T01:17:34.057Z,94665.41
2023-04-22T01:20:03.974Z,94670.91
2023-04-22T01:22:36.522Z,94662.84
2023-04-22T01:25:06.892Z,94665.41
2023-04-22T01:27:36.184Z,94671.91
2023-04-22T01:30:05.094Z,94671.72
2023-04-22T01:32:33.241Z,94675.28
2023-04-22T01:35:01.259Z,94678.78
2023-04-22T01:37:29.807Z,94667.41
2023-04-22T01:39:58.921Z,94667.22
2023-04-22T01:42:28.341Z,94668.59
2023-04-22T01:44:56.203Z,94677.63
2023-04-22T01:47:24.115Z,94667.78
2023-04-22T01:49:52.939Z,94659.50
2023-04-22T01:52:21.208Z,94670.91
2023-04-22T01:54:49.739Z,94663.66
2023-04-22T01:57:17.731Z,94670.13
2023-04-22T01:59:46.920Z,94676.25
2023-04-22T02:02:15.983Z,94668.38
2023-04-22T02:04:43.948Z,94672.69
2023-04-22T02:07:11.889Z,94673.28
2023-04-22T02:09:40.035Z,94677.63
2023-04-22T02:12:08.172Z,94679.16
2023-04-22T02:14:36.011Z,94674.59
2023-04-22T02:17:06.024Z,94677.91
2023-04-22T02:19:33.875Z,94672.41
2023-04-22T02:22:03.076Z,94682.63
2023-04-22T02:24:31.513Z,94677.16
2023-04-22T02:27:00.277Z,94675.81
2023-04-22T02:29:29.199Z,94671.72
2023-04-22T02:31:59.942Z,94659.91
2023-04-22T02:34:30.097Z,94677.22
2023-04-22T02:36:57.935Z,94682.53
2023-04-22T02:39:26.506Z,94675.81
2023-04-22T02:41:54.595Z,94669.94
2023-04-22T02:44:22.812Z,94673.66
2023-04-22T02:46:50.930Z,94666.69
2023-04-22T02:49:19.260Z,94652.94
2023-04-22T02:51:48.403Z,94664.16
2023-04-22T02:54:16.305Z,94663.59
2023-04-22T02:56:44.158Z,94662.19
2023-04-22T02:59:12.166Z,94662.81
2023-04-22T03:01:40.281Z,94664.38
2023-04-22T03:04:12.317Z,94666.69
2023-04-22T03:06:40.322Z,94665.88
2023-04-22T03:09:12.382Z,94662.13
2023-04-22T03:11:40.292Z,94659.13
2023-04-22T03:14:11.288Z,94658.16
2023-04-22T03:16:40.003Z,94663.09
2023-04-22T03:19:08.483Z,94660.97
2023-04-22T03:21:36.336Z,94657.06
2023-04-22T03:24:04.414Z,94653.41
2023-04-22T03:26:35.761Z,94658.25
2023-04-22T03:29:05.248Z,94643.06
2023-04-22T03:31:33.249Z,94650.34
2023-04-22T03:34:01.210Z,94652.66
2023-04-22T03:36:31.465Z,94649.91
2023-04-22T03:38:59.265Z,94649.88
2023-04-22T03:41:27.728Z,94661.66
2023-04-22T03:43:58.356Z,94665.06
2023-04-22T03:46:27.514Z,94662.91
2023-04-22T03:49:10.780Z,94658.88
2023-04-22T03:51:38.818Z,94657.81
2023-04-22T03:54:12.134Z,94664.41
2023-04-22T03:56:46.400Z,94663.09
2023-04-22T03:59:15.621Z,94661.97
2023-04-22T04:01:43.487Z,94659.63
2023-04-22T04:04:11.880Z,94666.91
2023-04-22T04:06:47.075Z,94664.03
2023-04-22T04:09:14.831Z,94665.81
2023-04-22T04:11:42.682Z,94661.00
2023-04-22T04:14:11.646Z,94669.88
2023-04-22T04:16:47.707Z,94658.56
2023-04-22T04:19:24.277Z,94664.13
2023-04-22T04:21:52.591Z,94668.84
2023-04-22T04:24:21.639Z,94669.28
2023-04-22T04:26:51.936Z,94667.16
2023-04-22T04:29:25.170Z,94667.13
2023-04-22T04:32:05.662Z,94658.66
2023-04-22T04:34:37.052Z,94654.66
2023-04-22T04:37:06.597Z,94657.63
2023-04-22T04:39:46.264Z,94660.72
2023-04-22T04:42:15.417Z,94663.84
2023-04-22T04:44:51.510Z,94667.00
2023-04-22T04:47:22.598Z,94658.97
2023-04-22T04:49:54.591Z,94670.38
2023-04-22T04:52:22.636Z,94669.03
2023-04-22T04:54:50.497Z,94669.03
2023-04-22T04:57:18.377Z,94671.63
2023-04-22T04:59:46.426Z,94674.19
2023-04-22T05:02:15.027Z,94673.03
2023-04-22T05:04:44.563Z,94678.75
2023-04-22T05:07:12.586Z,94674.66
2023-04-22T05:09:42.022Z,94671.38
2023-04-22T05:12:10.351Z,94663.75
2023-04-22T05:14:38.395Z,94660.06
2023-04-22T05:17:06.282Z,94661.69
2023-04-22T05:19:35.055Z,94665.81
2023-04-22T05:22:04.509Z,94669.38
2023-04-22T05:24:32.533Z,94675.66
2023-04-22T05:27:00.746Z,94672.69
2023-04-22T05:29:29.853Z,94671.28
2023-04-22T05:31:57.773Z,94676.16
2023-04-22T05:34:25.870Z,94677.31
2023-04-22T05:36:55.311Z,94684.75
2023-04-22T05:39:24.996Z,94676.28
2023-04-22T05:41:54.729Z,94683.94
2023-04-22T05:44:23.356Z,94696.25
2023-04-22T05:46:51.282Z,94681.78
2023-04-22T05:49:21.021Z,94693.94
2023-04-22T05:52:07.483Z,94694.25
2023-04-22T05:54:49.230Z,94704.97
2023-04-22T05:57:17.356Z,94704.84
2023-04-22T05:59:46.326Z,94709.03
2023-04-22T06:02:15.453Z,94708.94
2023-04-22T06:04:43.705Z,94704.69
2023-04-22T06:07:11.971Z,94718.28
2023-04-22T06:09:40.994Z,94717.72
2023-04-22T06:12:12.046Z,94723.00
2023-04-22T06:14:40.428Z,94713.22
2023-04-22T06:17:09.613Z,94720.91
2023-04-22T06:19:38.206Z,94720.41
2023-04-22T06:22:06.278Z,94710.19
2023-04-22T06:24:34.240Z,94704.19
2023-04-22T06:27:02.170Z,94715.75
2023-04-22T06:29:32.240Z,94719.97
2023-04-22T06:32:00.143Z,94721.88
2023-04-22T06:34:28.165Z,94718.75
2023-04-22T06:36:56.649Z,94722.97
2023-04-22T06:39:24.408Z,94723.19
2023-04-22T06:42:05.047Z,94726.47
2023-04-22T06:45:08.406Z,94719.13
2023-04-22T06:47:44.226Z,94724.47
2023-04-22T06:50:17.376Z,94726.34
2023-04-22T06:52:58.508Z,94728.50
2023-04-22T06:55:26.350Z,94726.13
2023-04-22T06:57:54.289Z,94727.47
2023-04-22T07:00:23.406Z,94720.59
2023-04-22T07:02:51.469Z,94719.09
2023-04-22T07:05:19.330Z,94715.00
2023-04-22T07:07:47.648Z,94712.97
2023-04-22T07:10:20.374Z,94715.91
2023-04-22T07:13:08.307Z,94714.19
2023-04-22T07:15:37.541Z,94713.28
2023-04-22T07:18:05.548Z,94718.19
2023-04-22T07:20:33.275Z,94715.22
2023-04-22T07:23:01.414Z,94710.47
2023-04-22T07:25:29.433Z,94716.19
2023-04-22T07:27:57.235Z,94706.94
2023-04-22T07:30:25.097Z,94701.22
2023-04-22T07:32:54.515Z,94699.56
2023-04-22T07:35:22.385Z,94702.56
2023-04-22T07:37:50.188Z,94702.63
2023-04-22T07:40:20.065Z,94702.00
2023-04-22T07:42:47.932Z,94703.78
2023-04-22T07:45:15.773Z,94707.47
2023-04-22T07:47:43.727Z,94703.94
2023-04-22T07:50:13.257Z,94702.75
2023-04-22T07:52:41.110Z,94704.75
2023-04-22T07:55:09.820Z,94705.78
2023-04-22T07:57:39.044Z,94699.28
2023-04-22T08:00:08.830Z,94703.66
2023-04-22T08:02:44.119Z,94704.94
2023-04-22T08:05:13.650Z,94702.81
2023-04-22T08:07:41.532Z,94717.13
2023-04-22T08:10:10.430Z,94707.31
2023-04-22T08:12:38.434Z,94708.03
2023-04-22T08:15:07.432Z,94708.00
2023-04-22T08:17:35.379Z,94706.06
2023-04-22T08:20:05.859Z,94708.63
2023-04-22T08:22:36.674Z,94701.28
2023-04-22T08:25:04.699Z,94707.16
2023-04-22T08:27:32.574Z,94699.56
2023-04-22T08:30:00.441Z,94699.22
2023-04-22T08:32:28.319Z,94713.88
2023-04-22T08:35:04.020Z,94711.22
2023-04-22T08:37:32.450Z,94718.66
2023-04-22T08:40:01.814Z,94714.63
2023-04-22T08:42:30.668Z,94708.97
2023-04-22T08:44:59.005Z,94710.28
2023-04-22T08:47:27.511Z,94709.84
2023-04-22T08:49:56.867Z,94705.88
2023-04-22T08:52:24.780Z,94698.56
2023-04-22T08:54:53.022Z,94701.19
2023-04-22T08:57:25.255Z,94703.63
2023-04-22T08:59:55.552Z,94696.69
2023-04-22T09:02:25.886Z,94692.34
2023-04-22T09:04:54.653Z,94697.72
2023-04-22T09:07:25.157Z,94697.22
2023-04-22T09:09:54.028Z,94697.22
2023-04-22T09:12:22.120Z,94684.56
2023-04-22T09:14:51.367Z,94689.28
2023-04-22T09:17:19.776Z,94685.13
2023-04-22T09:19:57.997Z,94684.84
2023-04-22T09:22:26.942Z,94682.78
2023-04-22T09:24:55.270Z,94691.25
2023-04-22T09:27:31.914Z,94678.31
2023-04-22T09:30:01.162Z,94682.50
2023-04-22T09:32:29.434Z,94684.31
2023-04-22T09:34:58.370Z,94677.56
2023-04-22T09:37:35.834Z,94678.38
2023-04-22T09:40:10.995Z,94677.53
2023-04-22T09:42:51.083Z,94673.63
2023-04-22T09:45:31.039Z,94668.66
2023-04-22T09:48:01.901Z,94670.50
2023-04-22T09:50:30.094Z,94670.94
2023-04-22T09:53:05.409Z,94672.59
2023-04-22T09:55:35.637Z,94671.28
2023-04-22T09:58:08.780Z,94671.31
2023-04-22T10:00:41.962Z,94664.25
2023-04-22T10:03:10.739Z,94654.59
2023-04-22T10:05:39.217Z,94659.81
2023-04-22T10:08:08.324Z,94651.28
2023-04-22T10:10:36.292Z,94654.22
2023-04-22T10:13:05.450Z,94651.00
2023-04-22T10:15:35.635Z,94647.03
2023-04-22T10:18:07.909Z,94632.81
2023-04-22T10:20:38.861Z,94641.22
2023-04-22T10:23:07.857Z,94643.75
2023-04-22T10:25:35.709Z,94640.06
2023-04-22T10:28:04.989Z,94632.97
2023-04-22T10:30:34.189Z,94631.19
2023-04-22T10:33:40.643Z,94637.78
2023-04-22T10:36:11.224Z,94640.19
2023-04-22T10:38:41.913Z,94638.31
2023-04-22T10:41:15.069Z,94643.28
2023-04-22T10:43:44.039Z,94623.25
2023-04-22T10:46:45.492Z,94627.78
2023-04-22T10:49:20.533Z,94621.88
2023-04-22T10:51:49.922Z,94620.69
2023-04-22T10:54:47.400Z,94630.47
2023-04-22T10:57:22.450Z,94627.47
2023-04-22T10:59:53.308Z,94618.91
2023-04-22T11:02:22.761Z,94615.81
2023-04-22T11:04:54.384Z,94618.03
2023-04-22T11:07:34.870Z,94619.06
2023-04-22T11:10:10.489Z,94611.69
2023-04-22T11:12:44.858Z,94616.41
2023-04-22T11:15:14.975Z,94609.50
2023-04-22T11:17:44.677Z,94616.06
2023-04-22T11:20:17.312Z,94611.91
2023-04-22T11:22:47.030Z,94604.69
2023-04-22T11:25:15.373Z,94611.84
2023-04-22T11:27:44.083Z,94605.97
2023-04-22T11:30:14.950Z,94604.94
2023-04-22T11:32:44.677Z,94610.16
2023-04-22T11:35:15.549Z,94607.38
2023-04-22T11:37:45.554Z,94600.66
2023-04-22T11:40:28.814Z,94611.25
2023-04-22T11:42:58.796Z,94614.69
2023-04-22T11:45:29.895Z,94608.59
2023-04-22T11:47:58.049Z,94599.53
2023-04-22T11:50:29.269Z,94619.88
2023-04-22T11:52:58.919Z,94609.19
2023-04-22T11:55:30.468Z,94606.66
2023-04-22T11:58:01.368Z,94603.84
2023-04-22T12:00:33.897Z,94599.16
2023-04-22T12:03:03.552Z,94598.31
2023-04-22T12:05:40.788Z,94601.56
2023-04-22T12:08:11.842Z,94604.72
2023-04-22T12:10:45.036Z,94603.56
2023-04-22T12:13:19.888Z,94589.66
2023-04-22T12:15:48.128Z,94598.16
2023-04-22T12:18:15.992Z,94593.72
2023-04-22T12:20:45.215Z,94593.50
2023-04-22T12:23:15.301Z,94590.63
2023-04-22T12:25:43.934Z,94591.03
2023-04-22T12:28:14.279Z,94583.50
2023-04-22T12:30:42.314Z,94589.75
2023-04-22T12:33:10.638Z,94579.94
2023-04-22T12:35:38.428Z,94581.97
2023-04-22T12:38:07.617Z,94591.28
2023-04-22T12:40:35.411Z,94587.13
2023-04-22T12:43:05.961Z,94587.63
2023-04-22T12:45:33.956Z,94586.34
2023-04-22T12:48:01.951Z,94580.06
2023-04-22T12:50:29.784Z,94591.16
2023-04-22T12:52:57.642Z,94583.03
2023-04-22T12:55:27.364Z,94581.06
2023-04-22T12:57:55.480Z,94574.22
2023-04-22T13:00:24.376Z,94577.91
2023-04-22T13:02:52.830Z,94584.63
2023-04-22T13:05:20.835Z,94576.78
2023-04-22T13:07:56.393Z,94577.97
2023-04-22T13:10:36.097Z,94578.84
2023-04-22T13:13:17.104Z,94566.41
2023-04-22T13:15:46.136Z,94569.50
2023-04-22T13:18:13.946Z,94571.41
2023-04-22T13:20:42.624Z,94561.69
2023-04-22T13:23:10.832Z,94558.09
2023-04-22T13:25:40.037Z,94552.94
2023-04-22T13:28:07.938Z,94548.41
2023-04-22T13:30:35.722Z,94555.84
2023-04-22T13:33:04.004Z,94550.63
2023-04-22T13:35:31.812Z,94541.91
2023-04-22T13:37:59.705Z,94543.28
2023-04-22T13:40:27.685Z,94544.47
2023-04-22T13:42:56.853Z,94542.25
2023-04-22T13:45:25.603Z,94530.63
2023-04-22T13:47:54.654Z,94525.94
2023-04-22T13:50:22.658Z,94535.00
2023-04-22T13:52:50.844Z,94526.59
2023-04-22T13:55:19.040Z,94514.84
2023-04-22T13:57:47.047Z,94531.19
2023-04-22T14:00:16.668Z,94519.03
2023-04-22T14:02:44.576Z,94526.06
2023-04-22T14:05:12.564Z,94523.44
2023-04-22T14:07:40.343Z,94509.53
2023-04-22T14:10:11.989Z,94507.34
2023-04-22T14:12:40.498Z,94514.78
2023-04-22T14:15:10.881Z,94510.56
2023-04-22T14:17:40.435Z,94517.28
2023-04-22T14:20:10.782Z,94506.94
2023-04-22T14:22:38.607Z,94512.31
2023-04-22T14:25:07.824Z,94507.72
2023-04-22T14:27:35.630Z,94520.06
2023-04-22T14:30:04.881Z,94511.25
2023-04-22T14:32:32.908Z,94512.75
2023-04-22T14:35:02.568Z,94511.75
2023-04-22T14:37:31.634Z,94507.28
2023-04-22T14:39:59.613Z,94510.28
2023-04-22T14:42:28.179Z,94520.84
2023-04-22T14:44:55.972Z,94507.28
2023-04-22T14:47:23.823Z,94512.13
2023-04-22T14:49:51.665Z,94510.56
2023-04-22T14:52:20.964Z,94505.81
2023-04-22T14:54:51.258Z,94510.41
2023-04-22T14:57:19.748Z,94503.50
2023-04-22T14:59:47.559Z,94507.94
2023-04-22T15:02:16.016Z,94505.16
2023-04-22T15:04:44.144Z,94501.47
2023-04-22T15:07:11.985Z,94503.78
2023-04-22T15:09:41.650Z,94501.06
2023-04-22T15:12:09.786Z,94500.09
2023-04-22T15:14:37.755Z,94500.13
2023-04-22T15:17:06.399Z,94507.72
2023-04-22T15:19:34.313Z,94502.31
2023-04-22T15:22:02.124Z,94503.78
2023-04-22T15:24:30.217Z,94497.16
2023-04-22T15:26:59.979Z,94494.25
2023-04-22T15:29:28.452Z,94498.78
2023-04-22T15:31:56.826Z,94500.22
2023-04-22T15:34:25.288Z,94496.34
2023-04-22T15:36:53.157Z,94496.69
2023-04-22T15:39:21.263Z,94494.19
2023-04-22T15:41:49.137Z,94497.38
2023-04-22T15:44:18.371Z,94494.41
2023-04-22T15:46:46.794Z,94498.28
2023-04-22T15:49:15.590Z,94507.69
2023-04-22T15:51:43.644Z,94500.09
2023-04-22T15:54:14.096Z,94502.53
2023-04-22T15:56:41.987Z,94504.53
2023-04-22T15:59:10.111Z,94511.69
2023-04-22T16:01:40.714Z,94512.44
2023-04-22T16:04:09.314Z,94506.50
2023-04-22T16:06:38.121Z,94514.41
2023-04-22T16:09:06.050Z,94508.38
2023-04-22T16:11:35.711Z,94513.94
2023-04-22T16:14:03.575Z,94520.81
2023-04-22T16:16:32.870Z,94522.47
2023-04-22T16:19:02.136Z,94514.00
2023-04-22T16:21:32.223Z,94514.63
2023-04-22T16:24:00.885Z,94501.06
2023-04-22T16:26:28.812Z,94511.31
2023-04-22T16:28:56.801Z,94515.69
2023-04-22T16:31:24.871Z,94503.31
2023-04-22T16:33:53.401Z,94509.91
2023-04-22T16:36:22.747Z,94502.56
2023-04-22T16:38:50.625Z,94499.59
2023-04-22T16:41:18.507Z,94502.00
2023-04-22T16:43:46.627Z,94501.78
2023-04-22T16:46:14.639Z,94508.25
2023-04-22T16:48:42.927Z,94501.47
2023-04-22T16:51:10.851Z,94507.13
2023-04-22T16:53:40.147Z,94503.25
2023-04-22T16:56:08.123Z,94509.81
2023-04-22T16:58:36.023Z,94492.66
2023-04-22T17:01:04.186Z,94501.06
2023-04-22T17:03:32.748Z,94503.38
2023-04-22T17:06:00.651Z,94499.34
2023-04-22T17:08:28.926Z,94503.84
2023-04-22T17:10:58.147Z,94514.25
2023-04-22T17:13:26.098Z,94505.28
2023-04-22T17:15:53.939Z,94506.81
2023-04-22T17:18:21.768Z,94502.22
2023-04-22T17:20:50.120Z,94503.31
2023-04-22T17:23:18.471Z,94508.84
2023-04-22T17:25:47.014Z,94503.72
2023-04-22T17:28:16.712Z,94504.53
2023-04-22T17:30:44.780Z,94499.44
2023-04-22T17:33:12.839Z,94508.16
2023-04-22T17:35:40.586Z,94505.78
2023-04-22T17:38:08.422Z,94507.91
2023-04-22T17:40:36.305Z,94508.47
2023-04-22T17:43:06.675Z,94516.03
2023-04-22T17:45:36.010Z,94517.41
2023-04-22T17:48:03.926Z,94516.09
2023-04-22T17:50:32.036Z,94516.91
2023-04-22T17:52:59.952Z,94515.38
2023-04-22T17:55:30.254Z,94522.72
2023-04-22T17:58:00.006Z,94518.03
2023-04-22T18:00:27.998Z,94522.00
2023-04-22T18:02:57.587Z,94525.16
2023-04-22T18:05:27.040Z,94518.19
2023-04-22T18:07:58.090Z,94521.31
2023-04-22T18:10:25.909Z,94527.03
2023-04-22T18:12:53.694Z,94526.28
2023-04-22T18:15:23.407Z,94533.06
2023-04-22T18:17:51.441Z,94529.41
2023-04-22T18:20:20.878Z,94531.47
2023-04-22T18:22:51.979Z,94535.63
2023-04-22T18:25:20.002Z,94536.16
2023-04-22T18:27:50.054Z,94533.84
2023-04-22T18:30:18.092Z,94540.31
2023-04-22T18:32:46.049Z,94536.69
2023-04-22T18:35:15.800Z,94544.47
2023-04-22T18:37:45.523Z,94546.78
2023-04-22T18:40:14.407Z,94546.00
2023-04-22T18:42:44.630Z,94552.50
2023-04-22T18:45:13.092Z,94544.72
2023-04-22T18:47:41.478Z,94550.69
2023-04-22T18:50:09.891Z,94550.44
2023-04-22T18:52:37.887Z,94554.06
2023-04-22T18:55:07.754Z,94551.72
2023-04-22T18:57:36.021Z,94505.72
2023-04-22T19:00:06.177Z,94555.34
2023-04-22T19:02:37.257Z,94568.09
2023-04-22T19:05:07.002Z,94578.19
2023-04-22T19:07:34.943Z,94570.38
2023-04-22T19:10:03.011Z,94578.91
2023-04-22T19:12:32.189Z,94580.94
2023-04-22T19:15:00.373Z,94581.19
2023-04-22T19:17:28.845Z,94588.72
2023-04-22T19:19:56.898Z,94591.31
2023-04-22T19:22:24.826Z,94592.34
2023-04-22T19:24:52.691Z,94597.28
2023-04-22T19:27:20.728Z,94599.50
2023-04-22T19:29:51.733Z,94604.94
2023-04-22T19:32:19.956Z,94617.66
2023-04-22T19:34:49.750Z,94614.28
2023-04-22T19:37:18.163Z,94621.88
2023-04-22T19:39:46.035Z,94623.50
2023-04-22T19:42:13.882Z,94626.59
2023-04-22T19:44:46.415Z,94626.34
2023-04-22T19:47:16.219Z,94633.59
2023-04-22T19:49:44.504Z,94636.13
2023-04-22T19:52:15.433Z,94635.28
2023-04-22T19:54:47.681Z,94629.31
2023-04-22T19:57:16.132Z,94633.38
2023-04-22T19:59:45.828Z,94644.75
2023-04-22T20:02:15.630Z,94628.63
2023-04-22T20:04:44.083Z,94641.75
2023-04-22T20:07:13.189Z,94639.09
2023-04-22T20:09:42.329Z,94634.16
2023-04-22T20:12:11.070Z,94637.19
2023-04-22T20:14:39.300Z,94641.00
2023-04-22T20:17:07.549Z,94633.94
2023-04-22T20:19:37.511Z,94638.50
2023-04-22T20:22:07.656Z,94645.22
2023-04-22T20:24:39.637Z,94643.88
2023-04-22T20:27:07.939Z,94642.78
2023-04-22T20:29:38.087Z,94636.97
2023-04-22T20:32:06.870Z,94636.66
2023-04-22T20:34:37.077Z,94642.09
2023-04-22T20:37:09.691Z,94635.78
2023-04-22T20:39:39.403Z,94636.50
2023-04-22T20:42:08.175Z,94640.06
2023-04-22T20:44:36.641Z,94628.66
2023-04-22T20:47:04.440Z,94628.53
2023-04-22T20:49:32.253Z,94628.00
2023-04-22T20:52:02.265Z,94632.94
2023-04-22T20:54:30.275Z,94633.88
2023-04-22T20:56:58.890Z,94626.38
2023-04-22T20:59:26.838Z,94633.56
2023-04-22T21:01:55.379Z,94627.81
2023-04-22T21:04:24.192Z,94631.66
2023-04-22T21:06:52.682Z,94629.50
2023-04-22T21:09:24.736Z,94628.38
2023-04-22T21:11:54.602Z,94633.66
2023-04-22T21:14:26.135Z,94632.03
2023-04-22T21:17:01.116Z,94641.28
2023-04-22T21:19:33.089Z,94639.41
2023-04-22T21:22:20.096Z,94632.16
2023-04-22T21:24:49.122Z,94631.38
2023-04-22T21:27:18.308Z,94639.28
2023-04-22T21:29:48.469Z,94634.13
2023-04-22T21:32:17.362Z,94638.19
2023-04-22T21:34:45.951Z,94640.22
2023-04-22T21:37:19.755Z,94641.56
2023-04-22T21:39:49.748Z,94638.66
2023-04-22T21:42:21.949Z,94639.19
2023-04-22T21:44:52.736Z,94643.66
2023-04-22T21:47:22.131Z,94646.50
2023-04-22T21:49:52.479Z,94652.59
2023-04-22T21:52:22.350Z,94641.81
2023-04-22T21:54:53.544Z,94652.84
2023-04-22T21:57:26.092Z,94647.00
2023-04-22T21:59:54.068Z,94658.72
2023-04-22T22:02:26.464Z,94644.88
2023-04-22T22:04:54.761Z,94648.28
2023-04-22T22:07:24.068Z,94654.75
2023-04-22T22:09:52.871Z,94653.47
2023-04-22T22:12:23.280Z,94652.31
2023-04-22T22:14:51.321Z,94655.53
2023-04-22T22:17:19.647Z,94608.53
2023-04-22T22:19:48.722Z,94658.56
2023-04-22T22:22:16.672Z,94652.59
2023-04-22T22:24:46.569Z,94673.91
2023-04-22T22:27:14.594Z,94650.88
2023-04-22T22:29:42.582Z,94656.03
2023-04-22T22:32:10.428Z,94660.38
2023-04-22T22:34:38.553Z,94660.59
2023-04-22T22:37:07.030Z,94660.72
2023-04-22T22:39:34.968Z,94658.00
2023-04-22T22:42:04.286Z,94650.63
2023-04-22T22:44:32.160Z,94667.88
2023-04-22T22:47:00.128Z,94662.16
2023-04-22T22:49:27.946Z,94659.88
2023-04-22T22:51:56.034Z,94662.22
2023-04-22T22:54:23.903Z,94651.94
2023-04-22T22:56:51.772Z,94652.59
2023-04-22T22:59:20.978Z,94662.00
2023-04-22T23:01:48.869Z,94655.31
2023-04-22T23:04:17.028Z,94655.19
2023-04-22T23:06:45.054Z,94662.41
2023-04-22T23:09:14.130Z,94665.22
2023-04-22T23:11:41.989Z,94665.59
2023-04-22T23:14:10.554Z,94667.34
2023-04-22T23:16:39.827Z,94669.75
2023-04-22T23:19:08.076Z,94675.47
2023-04-22T23:21:36.524Z,94674.41
2023-04-22T23:24:04.877Z,94678.47
2023-04-22T23:26:33.205Z,94673.22
2023-04-22T23:29:01.563Z,94661.84
2023-04-22T23:31:31.216Z,94660.22
2023-04-22T23:34:02.684Z,94662.16
2023-04-22T23:36:31.417Z,94662.09
2023-04-22T23:38:59.454Z,94661.06
2023-04-22T23:41:27.442Z,94661.19
2023-04-22T23:43:55.346Z,94649.13
2023-04-22T23:46:23.378Z,94658.19
2023-04-22T23:48:51.324Z,94659.06
2023-04-22T23:51:20.564Z,94662.00
2023-04-22T23:53:48.519Z,94655.09
2023-04-22T23:56:20.189Z,94655.66
2023-04-22T23:58:48.741Z,94654.56
